sensor_id;sensor_type;location;lat;lon;timestamp;temperature;humidity
74511;DHT22;62991;50.040;18.400;2022-08-20T00:02:24;20.00;86.40
74511;DHT22;62991;50.040;18.400;2022-08-20T00:05:35;20.10;86.30
74511;DHT22;62991;50.040;18.400;2022-08-20T00:08:36;20.10;86.20
74511;DHT22;62991;50.040;18.400;2022-08-20T00:11:37;20.10;86.20
74511;DHT22;62991;50.040;18.400;2022-08-20T00:14:38;20.10;86.20
74511;DHT22;62991;50.040;18.400;2022-08-20T00:17:39;20.10;86.10
74511;DHT22;62991;50.040;18.400;2022-08-20T00:20:44;20.10;86.30
74511;DHT22;62991;50.040;18.400;2022-08-20T00:23:47;20.10;86.20
74511;DHT22;62991;50.040;18.400;2022-08-20T00:26:48;20.00;86.30
74511;DHT22;62991;50.040;18.400;2022-08-20T00:29:49;20.00;86.30
74511;DHT22;62991;50.040;18.400;2022-08-20T00:32:56;20.00;86.40
74511;DHT22;62991;50.040;18.400;2022-08-20T00:35:57;20.00;86.40
74511;DHT22;62991;50.040;18.400;2022-08-20T00:38:59;20.00;86.30
74511;DHT22;62991;50.040;18.400;2022-08-20T00:42:00;20.10;86.20
74511;DHT22;62991;50.040;18.400;2022-08-20T00:45:02;20.10;86.30
74511;DHT22;62991;50.040;18.400;2022-08-20T00:48:03;20.20;86.10
74511;DHT22;62991;50.040;18.400;2022-08-20T00:51:13;20.30;85.90
74511;DHT22;62991;50.040;18.400;2022-08-20T00:54:18;20.30;85.80
74511;DHT22;62991;50.040;18.400;2022-08-20T00:57:33;20.40;85.80
74511;DHT22;62991;50.040;18.400;2022-08-20T01:03:37;20.40;85.60
74511;DHT22;62991;50.040;18.400;2022-08-20T01:06:39;20.40;85.60
74511;DHT22;62991;50.040;18.400;2022-08-20T01:09:41;20.40;85.50
74511;DHT22;62991;50.040;18.400;2022-08-20T01:12:45;20.50;85.40
74511;DHT22;62991;50.040;18.400;2022-08-20T01:15:49;20.50;85.10
74511;DHT22;62991;50.040;18.400;2022-08-20T01:18:51;20.50;85.20
74511;DHT22;62991;50.040;18.400;2022-08-20T01:21:52;20.50;85.10
74511;DHT22;62991;50.040;18.400;2022-08-20T01:25:03;20.40;85.30
74511;DHT22;62991;50.040;18.400;2022-08-20T01:28:05;20.40;85.50
74511;DHT22;62991;50.040;18.400;2022-08-20T01:31:13;20.50;85.50
74511;DHT22;62991;50.040;18.400;2022-08-20T01:34:18;20.50;85.50
74511;DHT22;62991;50.040;18.400;2022-08-20T01:37:19;20.60;85.50
74511;DHT22;62991;50.040;18.400;2022-08-20T01:40:32;20.70;85.50
74511;DHT22;62991;50.040;18.400;2022-08-20T01:43:36;20.80;85.60
74511;DHT22;62991;50.040;18.400;2022-08-20T01:46:40;20.90;85.50
74511;DHT22;62991;50.040;18.400;2022-08-20T01:49:44;21.00;85.50
74511;DHT22;62991;50.040;18.400;2022-08-20T01:53:06;21.10;85.20
74511;DHT22;62991;50.040;18.400;2022-08-20T01:56:11;21.00;85.10
74511;DHT22;62991;50.040;18.400;2022-08-20T01:59:13;21.00;85.30
74511;DHT22;62991;50.040;18.400;2022-08-20T02:02:14;21.10;85.30
74511;DHT22;62991;50.040;18.400;2022-08-20T02:05:15;21.10;85.10
74511;DHT22;62991;50.040;18.400;2022-08-20T02:08:16;21.00;84.90
74511;DHT22;62991;50.040;18.400;2022-08-20T02:11:17;20.80;85.20
74511;DHT22;62991;50.040;18.400;2022-08-20T02:14:18;20.80;85.70
74511;DHT22;62991;50.040;18.400;2022-08-20T02:17:21;20.70;85.60
74511;DHT22;62991;50.040;18.400;2022-08-20T02:20:27;20.60;85.70
74511;DHT22;62991;50.040;18.400;2022-08-20T02:23:28;20.60;85.90
74511;DHT22;62991;50.040;18.400;2022-08-20T02:26:29;20.60;86.00
74511;DHT22;62991;50.040;18.400;2022-08-20T02:29:30;20.60;86.00
74511;DHT22;62991;50.040;18.400;2022-08-20T02:32:31;20.60;86.10
74511;DHT22;62991;50.040;18.400;2022-08-20T02:35:33;20.60;86.10
74511;DHT22;62991;50.040;18.400;2022-08-20T02:38:33;20.70;86.00
74511;DHT22;62991;50.040;18.400;2022-08-20T02:41:35;20.70;85.80
74511;DHT22;62991;50.040;18.400;2022-08-20T02:44:37;20.80;85.80
74511;DHT22;62991;50.040;18.400;2022-08-20T02:47:39;20.90;85.50
74511;DHT22;62991;50.040;18.400;2022-08-20T02:50:41;21.00;85.30
74511;DHT22;62991;50.040;18.400;2022-08-20T02:53:43;21.00;85.00
74511;DHT22;62991;50.040;18.400;2022-08-20T02:56:44;21.00;84.70
74511;DHT22;62991;50.040;18.400;2022-08-20T02:59:46;21.00;84.90
74511;DHT22;62991;50.040;18.400;2022-08-20T03:02:47;21.00;85.00
74511;DHT22;62991;50.040;18.400;2022-08-20T03:05:50;21.10;84.90
74511;DHT22;62991;50.040;18.400;2022-08-20T03:08:52;21.20;84.70
74511;DHT22;62991;50.040;18.400;2022-08-20T03:11:53;21.20;84.50
74511;DHT22;62991;50.040;18.400;2022-08-20T03:14:54;21.10;84.60
74511;DHT22;62991;50.040;18.400;2022-08-20T03:17:55;21.00;84.90
74511;DHT22;62991;50.040;18.400;2022-08-20T03:20:56;21.10;84.90
74511;DHT22;62991;50.040;18.400;2022-08-20T03:23:57;21.20;84.80
74511;DHT22;62991;50.040;18.400;2022-08-20T03:26:57;21.30;84.70
74511;DHT22;62991;50.040;18.400;2022-08-20T03:29:58;21.40;84.50
74511;DHT22;62991;50.040;18.400;2022-08-20T03:32:59;21.40;84.40
74511;DHT22;62991;50.040;18.400;2022-08-20T03:36:00;21.50;84.30
74511;DHT22;62991;50.040;18.400;2022-08-20T03:39:05;21.50;84.20
74511;DHT22;62991;50.040;18.400;2022-08-20T03:42:07;21.50;84.10
74511;DHT22;62991;50.040;18.400;2022-08-20T03:45:09;21.50;84.00
74511;DHT22;62991;50.040;18.400;2022-08-20T03:48:17;21.40;84.20
74511;DHT22;62991;50.040;18.400;2022-08-20T03:51:19;21.40;84.30
74511;DHT22;62991;50.040;18.400;2022-08-20T03:54:20;21.30;84.40
74511;DHT22;62991;50.040;18.400;2022-08-20T03:57:21;21.20;84.50
74511;DHT22;62991;50.040;18.400;2022-08-20T04:00:27;21.30;84.60
74511;DHT22;62991;50.040;18.400;2022-08-20T04:03:28;21.30;84.60
74511;DHT22;62991;50.040;18.400;2022-08-20T04:06:29;21.40;84.50
74511;DHT22;62991;50.040;18.400;2022-08-20T04:09:30;21.40;84.20
74511;DHT22;62991;50.040;18.400;2022-08-20T04:12:31;21.50;84.10
74511;DHT22;62991;50.040;18.400;2022-08-20T04:15:32;21.50;84.10
74511;DHT22;62991;50.040;18.400;2022-08-20T04:18:35;21.50;84.10
74511;DHT22;62991;50.040;18.400;2022-08-20T04:21:36;21.60;83.90
74511;DHT22;62991;50.040;18.400;2022-08-20T04:24:37;21.60;84.10
74511;DHT22;62991;50.040;18.400;2022-08-20T04:27:38;21.60;84.10
74511;DHT22;62991;50.040;18.400;2022-08-20T04:30:40;21.60;84.10
74511;DHT22;62991;50.040;18.400;2022-08-20T04:33:46;21.60;84.00
74511;DHT22;62991;50.040;18.400;2022-08-20T04:36:47;21.60;84.20
74511;DHT22;62991;50.040;18.400;2022-08-20T04:39:49;21.70;84.00
74511;DHT22;62991;50.040;18.400;2022-08-20T04:43:08;21.70;84.00
74511;DHT22;62991;50.040;18.400;2022-08-20T04:46:09;21.70;84.00
74511;DHT22;62991;50.040;18.400;2022-08-20T04:49:10;21.80;84.10
74511;DHT22;62991;50.040;18.400;2022-08-20T04:52:15;21.80;84.20
74511;DHT22;62991;50.040;18.400;2022-08-20T04:55:16;21.90;84.00
74511;DHT22;62991;50.040;18.400;2022-08-20T04:58:25;21.90;84.00
74511;DHT22;62991;50.040;18.400;2022-08-20T05:01:27;22.00;84.00
74511;DHT22;62991;50.040;18.400;2022-08-20T05:04:28;22.00;83.90
74511;DHT22;62991;50.040;18.400;2022-08-20T05:07:28;22.10;83.80
74511;DHT22;62991;50.040;18.400;2022-08-20T05:10:29;22.20;83.90
74511;DHT22;62991;50.040;18.400;2022-08-20T05:13:30;22.20;83.70
74511;DHT22;62991;50.040;18.400;2022-08-20T05:16:31;22.20;83.60
74511;DHT22;62991;50.040;18.400;2022-08-20T05:19:37;22.20;83.50
74511;DHT22;62991;50.040;18.400;2022-08-20T05:23:03;22.20;83.50
74511;DHT22;62991;50.040;18.400;2022-08-20T05:26:04;22.30;83.60
74511;DHT22;62991;50.040;18.400;2022-08-20T05:29:07;22.30;83.50
74511;DHT22;62991;50.040;18.400;2022-08-20T05:32:08;22.40;83.40
74511;DHT22;62991;50.040;18.400;2022-08-20T05:35:09;22.40;83.30
74511;DHT22;62991;50.040;18.400;2022-08-20T05:38:13;22.40;83.20
74511;DHT22;62991;50.040;18.400;2022-08-20T05:41:14;22.50;82.80
74511;DHT22;62991;50.040;18.400;2022-08-20T05:44:15;22.50;82.70
74511;DHT22;62991;50.040;18.400;2022-08-20T05:47:16;22.40;82.70
74511;DHT22;62991;50.040;18.400;2022-08-20T05:50:18;22.50;82.60
74511;DHT22;62991;50.040;18.400;2022-08-20T05:53:20;22.40;82.50
74511;DHT22;62991;50.040;18.400;2022-08-20T05:56:21;22.40;82.50
74511;DHT22;62991;50.040;18.400;2022-08-20T05:59:23;22.40;82.50
74511;DHT22;62991;50.040;18.400;2022-08-20T06:02:24;22.50;82.40
74511;DHT22;62991;50.040;18.400;2022-08-20T06:05:44;22.50;82.30
74511;DHT22;62991;50.040;18.400;2022-08-20T06:08:45;22.60;82.40
74511;DHT22;62991;50.040;18.400;2022-08-20T06:11:45;22.80;82.40
74511;DHT22;62991;50.040;18.400;2022-08-20T06:14:46;22.90;82.10
74511;DHT22;62991;50.040;18.400;2022-08-20T06:17:47;23.00;82.10
74511;DHT22;62991;50.040;18.400;2022-08-20T06:20:48;23.10;82.00
74511;DHT22;62991;50.040;18.400;2022-08-20T06:23:49;23.20;81.90
74511;DHT22;62991;50.040;18.400;2022-08-20T06:27:02;23.30;81.60
74511;DHT22;62991;50.040;18.400;2022-08-20T06:30:05;23.40;81.40
74511;DHT22;62991;50.040;18.400;2022-08-20T06:33:06;23.50;81.30
74511;DHT22;62991;50.040;18.400;2022-08-20T06:36:07;23.50;81.30
74511;DHT22;62991;50.040;18.400;2022-08-20T06:39:08;23.60;81.10
74511;DHT22;62991;50.040;18.400;2022-08-20T06:42:09;23.70;81.00
74511;DHT22;62991;50.040;18.400;2022-08-20T06:45:19;23.80;80.60
74511;DHT22;62991;50.040;18.400;2022-08-20T06:48:20;23.80;80.30
74511;DHT22;62991;50.040;18.400;2022-08-20T06:51:23;23.80;80.20
74511;DHT22;62991;50.040;18.400;2022-08-20T06:54:24;23.80;79.80
74511;DHT22;62991;50.040;18.400;2022-08-20T06:57:24;23.80;79.50
74511;DHT22;62991;50.040;18.400;2022-08-20T07:00:26;23.70;79.30
74511;DHT22;62991;50.040;18.400;2022-08-20T07:03:27;23.80;79.50
74511;DHT22;62991;50.040;18.400;2022-08-20T07:06:28;23.80;79.40
74511;DHT22;62991;50.040;18.400;2022-08-20T07:09:29;23.90;79.50
74511;DHT22;62991;50.040;18.400;2022-08-20T07:12:30;24.10;79.30
74511;DHT22;62991;50.040;18.400;2022-08-20T07:18:47;24.50;79.20
74511;DHT22;62991;50.040;18.400;2022-08-20T07:21:49;24.70;78.80
74511;DHT22;62991;50.040;18.400;2022-08-20T07:24:50;24.80;78.40
74511;DHT22;62991;50.040;18.400;2022-08-20T07:27:51;25.00;78.20
74511;DHT22;62991;50.040;18.400;2022-08-20T07:30:52;25.10;77.80
74511;DHT22;62991;50.040;18.400;2022-08-20T07:34:11;25.40;77.50
74511;DHT22;62991;50.040;18.400;2022-08-20T07:37:13;25.60;77.30
74511;DHT22;62991;50.040;18.400;2022-08-20T07:40:17;25.90;76.50
74511;DHT22;62991;50.040;18.400;2022-08-20T07:43:19;26.00;76.30
74511;DHT22;62991;50.040;18.400;2022-08-20T07:46:22;26.20;76.10
74511;DHT22;62991;50.040;18.400;2022-08-20T07:49:24;26.40;75.80
74511;DHT22;62991;50.040;18.400;2022-08-20T07:52:25;26.50;75.50
74511;DHT22;62991;50.040;18.400;2022-08-20T07:55:26;26.70;75.30
74511;DHT22;62991;50.040;18.400;2022-08-20T07:58:27;26.70;75.20
74511;DHT22;62991;50.040;18.400;2022-08-20T08:01:31;26.80;75.10
74511;DHT22;62991;50.040;18.400;2022-08-20T08:04:32;26.90;75.00
74511;DHT22;62991;50.040;18.400;2022-08-20T08:07:34;27.00;74.70
74511;DHT22;62991;50.040;18.400;2022-08-20T08:10:41;27.10;74.40
74511;DHT22;62991;50.040;18.400;2022-08-20T08:13:42;27.30;74.00
74511;DHT22;62991;50.040;18.400;2022-08-20T08:20:28;27.40;73.40
74511;DHT22;62991;50.040;18.400;2022-08-20T08:23:30;27.50;73.40
74511;DHT22;62991;50.040;18.400;2022-08-20T08:26:31;27.50;73.00
74511;DHT22;62991;50.040;18.400;2022-08-20T08:29:32;27.60;72.40
74511;DHT22;62991;50.040;18.400;2022-08-20T08:32:35;27.60;71.90
74511;DHT22;62991;50.040;18.400;2022-08-20T08:35:38;27.70;71.20
74511;DHT22;62991;50.040;18.400;2022-08-20T08:38:42;27.70;70.80
74511;DHT22;62991;50.040;18.400;2022-08-20T08:41:46;27.70;70.40
74511;DHT22;62991;50.040;18.400;2022-08-20T08:44:49;27.80;70.00
74511;DHT22;62991;50.040;18.400;2022-08-20T08:47:50;27.90;69.80
74511;DHT22;62991;50.040;18.400;2022-08-20T08:50:51;28.00;69.20
74511;DHT22;62991;50.040;18.400;2022-08-20T08:53:53;28.10;68.40
74511;DHT22;62991;50.040;18.400;2022-08-20T08:56:55;28.30;68.20
74511;DHT22;62991;50.040;18.400;2022-08-20T09:00:02;28.40;68.00
74511;DHT22;62991;50.040;18.400;2022-08-20T09:03:08;28.70;67.30
74511;DHT22;62991;50.040;18.400;2022-08-20T09:06:13;28.90;66.60
74511;DHT22;62991;50.040;18.400;2022-08-20T09:09:21;29.10;65.50
74511;DHT22;62991;50.040;18.400;2022-08-20T09:12:29;29.10;64.80
74511;DHT22;62991;50.040;18.400;2022-08-20T09:15:30;29.20;65.00
74511;DHT22;62991;50.040;18.400;2022-08-20T09:18:31;29.30;65.20
74511;DHT22;62991;50.040;18.400;2022-08-20T09:21:32;29.40;65.40
74511;DHT22;62991;50.040;18.400;2022-08-20T09:24:32;29.60;64.70
74511;DHT22;62991;50.040;18.400;2022-08-20T09:27:33;29.60;64.00
74511;DHT22;62991;50.040;18.400;2022-08-20T09:30:34;29.50;63.50
74511;DHT22;62991;50.040;18.400;2022-08-20T09:33:35;29.50;63.90
74511;DHT22;62991;50.040;18.400;2022-08-20T09:36:38;29.60;64.00
74511;DHT22;62991;50.040;18.400;2022-08-20T09:39:39;29.70;63.90
74511;DHT22;62991;50.040;18.400;2022-08-20T09:42:40;29.90;63.30
74511;DHT22;62991;50.040;18.400;2022-08-20T09:45:41;29.90;63.00
74511;DHT22;62991;50.040;18.400;2022-08-20T09:48:42;30.00;63.30
74511;DHT22;62991;50.040;18.400;2022-08-20T09:51:42;30.00;62.90
74511;DHT22;62991;50.040;18.400;2022-08-20T09:54:43;30.00;62.50
74511;DHT22;62991;50.040;18.400;2022-08-20T09:57:44;29.90;62.30
74511;DHT22;62991;50.040;18.400;2022-08-20T10:00:46;29.70;62.00
74511;DHT22;62991;50.040;18.400;2022-08-20T10:03:49;29.50;61.80
74511;DHT22;62991;50.040;18.400;2022-08-20T10:06:50;29.40;61.80
74511;DHT22;62991;50.040;18.400;2022-08-20T10:09:51;29.30;61.90
74511;DHT22;62991;50.040;18.400;2022-08-20T10:12:51;29.20;61.90
74511;DHT22;62991;50.040;18.400;2022-08-20T10:15:52;29.20;61.80
74511;DHT22;62991;50.040;18.400;2022-08-20T10:18:54;29.20;61.70
74511;DHT22;62991;50.040;18.400;2022-08-20T10:21:55;29.20;61.70
74511;DHT22;62991;50.040;18.400;2022-08-20T10:24:56;29.20;61.30
74511;DHT22;62991;50.040;18.400;2022-08-20T10:27:57;29.10;61.10
74511;DHT22;62991;50.040;18.400;2022-08-20T10:30:58;29.00;60.60
74511;DHT22;62991;50.040;18.400;2022-08-20T10:33:59;28.90;60.60
74511;DHT22;62991;50.040;18.400;2022-08-20T10:37:00;28.80;60.60
74511;DHT22;62991;50.040;18.400;2022-08-20T10:40:01;28.60;60.40
74511;DHT22;62991;50.040;18.400;2022-08-20T10:43:03;28.50;60.40
74511;DHT22;62991;50.040;18.400;2022-08-20T10:46:04;28.30;60.70
74511;DHT22;62991;50.040;18.400;2022-08-20T10:49:05;28.30;60.90
74511;DHT22;62991;50.040;18.400;2022-08-20T10:52:06;28.30;60.70
74511;DHT22;62991;50.040;18.400;2022-08-20T10:55:07;28.20;60.40
74511;DHT22;62991;50.040;18.400;2022-08-20T10:58:08;28.10;60.30
74511;DHT22;62991;50.040;18.400;2022-08-20T11:01:09;27.90;60.20
74511;DHT22;62991;50.040;18.400;2022-08-20T11:04:10;27.80;60.30
74511;DHT22;62991;50.040;18.400;2022-08-20T11:07:18;27.80;60.50
74511;DHT22;62991;50.040;18.400;2022-08-20T11:10:20;27.90;60.30
74511;DHT22;62991;50.040;18.400;2022-08-20T11:13:20;28.00;60.10
74511;DHT22;62991;50.040;18.400;2022-08-20T11:16:22;28.00;60.00
74511;DHT22;62991;50.040;18.400;2022-08-20T11:19:23;28.00;60.00
74511;DHT22;62991;50.040;18.400;2022-08-20T11:22:24;28.10;59.90
74511;DHT22;62991;50.040;18.400;2022-08-20T11:25:27;28.20;59.70
74511;DHT22;62991;50.040;18.400;2022-08-20T11:28:28;28.20;59.50
74511;DHT22;62991;50.040;18.400;2022-08-20T11:31:30;28.30;59.60
74511;DHT22;62991;50.040;18.400;2022-08-20T11:34:31;28.30;59.60
74511;DHT22;62991;50.040;18.400;2022-08-20T11:37:32;28.30;59.70
74511;DHT22;62991;50.040;18.400;2022-08-20T11:40:33;28.40;59.80
74511;DHT22;62991;50.040;18.400;2022-08-20T11:43:34;28.50;59.70
74511;DHT22;62991;50.040;18.400;2022-08-20T11:46:35;28.60;59.90
74511;DHT22;62991;50.040;18.400;2022-08-20T11:49:36;28.50;60.20
74511;DHT22;62991;50.040;18.400;2022-08-20T11:52:37;28.50;60.60
74511;DHT22;62991;50.040;18.400;2022-08-20T11:55:38;28.70;60.90
74511;DHT22;62991;50.040;18.400;2022-08-20T11:58:39;29.00;60.90
74511;DHT22;62991;50.040;18.400;2022-08-20T12:01:40;29.30;60.50
74511;DHT22;62991;50.040;18.400;2022-08-20T12:04:41;29.40;60.60
74511;DHT22;62991;50.040;18.400;2022-08-20T12:07:42;29.70;60.60
74511;DHT22;62991;50.040;18.400;2022-08-20T12:10:43;29.90;60.10
74511;DHT22;62991;50.040;18.400;2022-08-20T12:13:44;29.90;59.90
74511;DHT22;62991;50.040;18.400;2022-08-20T12:16:45;29.70;59.90
74511;DHT22;62991;50.040;18.400;2022-08-20T12:19:46;29.70;60.00
74511;DHT22;62991;50.040;18.400;2022-08-20T12:22:47;29.60;59.90
74511;DHT22;62991;50.040;18.400;2022-08-20T12:25:48;29.50;59.70
74511;DHT22;62991;50.040;18.400;2022-08-20T12:28:49;29.30;60.00
74511;DHT22;62991;50.040;18.400;2022-08-20T12:31:50;29.10;60.10
74511;DHT22;62991;50.040;18.400;2022-08-20T12:34:51;28.90;60.40
74511;DHT22;62991;50.040;18.400;2022-08-20T12:37:52;28.70;60.70
74511;DHT22;62991;50.040;18.400;2022-08-20T12:40:53;28.50;60.80
74511;DHT22;62991;50.040;18.400;2022-08-20T12:43:53;28.30;61.10
74511;DHT22;62991;50.040;18.400;2022-08-20T12:50:09;28.20;61.60
74511;DHT22;62991;50.040;18.400;2022-08-20T12:53:17;28.10;61.40
74511;DHT22;62991;50.040;18.400;2022-08-20T12:56:18;28.00;61.60
74511;DHT22;62991;50.040;18.400;2022-08-20T12:59:34;27.90;61.70
74511;DHT22;62991;50.040;18.400;2022-08-20T13:02:35;27.80;62.10
74511;DHT22;62991;50.040;18.400;2022-08-20T13:05:53;27.70;62.10
74511;DHT22;62991;50.040;18.400;2022-08-20T13:08:54;27.50;62.30
74511;DHT22;62991;50.040;18.400;2022-08-20T13:11:55;27.40;62.60
74511;DHT22;62991;50.040;18.400;2022-08-20T13:14:55;27.30;62.80
74511;DHT22;62991;50.040;18.400;2022-08-20T13:17:59;27.20;62.90
74511;DHT22;62991;50.040;18.400;2022-08-20T13:21:00;27.20;63.10
74511;DHT22;62991;50.040;18.400;2022-08-20T13:24:02;27.10;63.40
74511;DHT22;62991;50.040;18.400;2022-08-20T13:27:15;27.10;63.50
74511;DHT22;62991;50.040;18.400;2022-08-20T13:30:17;27.10;63.60
74511;DHT22;62991;50.040;18.400;2022-08-20T13:33:18;27.10;63.70
74511;DHT22;62991;50.040;18.400;2022-08-20T13:36:19;27.10;63.90
74511;DHT22;62991;50.040;18.400;2022-08-20T13:39:21;27.20;63.90
74511;DHT22;62991;50.040;18.400;2022-08-20T13:42:22;27.20;64.00
74511;DHT22;62991;50.040;18.400;2022-08-20T13:45:23;27.10;64.00
74511;DHT22;62991;50.040;18.400;2022-08-20T13:48:23;27.00;63.90
74511;DHT22;62991;50.040;18.400;2022-08-20T13:51:24;26.90;64.10
74511;DHT22;62991;50.040;18.400;2022-08-20T13:54:25;26.80;64.10
74511;DHT22;62991;50.040;18.400;2022-08-20T13:57:26;26.60;63.90
74511;DHT22;62991;50.040;18.400;2022-08-20T14:00:30;26.50;64.10
74511;DHT22;62991;50.040;18.400;2022-08-20T14:03:34;26.20;64.20
74511;DHT22;62991;50.040;18.400;2022-08-20T14:06:35;25.90;64.60
74511;DHT22;62991;50.040;18.400;2022-08-20T14:09:37;25.60;65.20
74511;DHT22;62991;50.040;18.400;2022-08-20T14:12:39;25.40;65.50
74511;DHT22;62991;50.040;18.400;2022-08-20T14:15:40;25.20;65.80
74511;DHT22;62991;50.040;18.400;2022-08-20T14:18:41;25.00;66.10
74511;DHT22;62991;50.040;18.400;2022-08-20T14:21:41;24.90;66.40
74511;DHT22;62991;50.040;18.400;2022-08-20T14:24:46;24.80;66.60
74511;DHT22;62991;50.040;18.400;2022-08-20T14:27:47;24.80;66.80
74511;DHT22;62991;50.040;18.400;2022-08-20T14:30:48;24.80;66.90
74511;DHT22;62991;50.040;18.400;2022-08-20T14:33:49;24.70;67.10
74511;DHT22;62991;50.040;18.400;2022-08-20T14:36:51;24.70;67.30
74511;DHT22;62991;50.040;18.400;2022-08-20T14:39:54;24.70;67.40
74511;DHT22;62991;50.040;18.400;2022-08-20T14:42:56;24.60;67.60
74511;DHT22;62991;50.040;18.400;2022-08-20T14:45:57;24.50;67.90
74511;DHT22;62991;50.040;18.400;2022-08-20T14:48:57;24.30;68.20
74511;DHT22;62991;50.040;18.400;2022-08-20T14:51:58;24.20;68.70
74511;DHT22;62991;50.040;18.400;2022-08-20T14:54:59;24.00;69.00
74511;DHT22;62991;50.040;18.400;2022-08-20T14:58:00;24.00;69.10
74511;DHT22;62991;50.040;18.400;2022-08-20T15:01:00;23.90;69.20
74511;DHT22;62991;50.040;18.400;2022-08-20T15:08:06;23.50;70.00
74511;DHT22;62991;50.040;18.400;2022-08-20T15:11:08;23.40;70.30
74511;DHT22;62991;50.040;18.400;2022-08-20T15:14:09;23.50;70.30
74511;DHT22;62991;50.040;18.400;2022-08-20T15:17:24;23.60;70.10
74511;DHT22;62991;50.040;18.400;2022-08-20T15:20:28;23.70;70.00
74511;DHT22;62991;50.040;18.400;2022-08-20T15:23:30;23.80;70.20
74511;DHT22;62991;50.040;18.400;2022-08-20T15:26:31;23.90;70.30
74511;DHT22;62991;50.040;18.400;2022-08-20T15:29:32;24.00;70.40
74511;DHT22;62991;50.040;18.400;2022-08-20T15:32:32;24.10;70.30
74511;DHT22;62991;50.040;18.400;2022-08-20T15:35:34;24.20;70.20
74511;DHT22;62991;50.040;18.400;2022-08-20T15:38:35;24.30;70.10
74511;DHT22;62991;50.040;18.400;2022-08-20T15:41:36;24.40;69.80
74511;DHT22;62991;50.040;18.400;2022-08-20T15:44:37;24.40;69.40
74511;DHT22;62991;50.040;18.400;2022-08-20T15:54:18;24.20;69.00
74511;DHT22;62991;50.040;18.400;2022-08-20T16:00:28;23.90;69.50
74511;DHT22;62991;50.040;18.400;2022-08-20T16:06:57;23.80;69.50
74511;DHT22;62991;50.040;18.400;2022-08-20T16:10:11;23.70;69.60
74511;DHT22;62991;50.040;18.400;2022-08-20T16:13:37;23.50;70.10
74511;DHT22;62991;50.040;18.400;2022-08-20T16:16:55;23.40;70.30
74511;DHT22;62991;50.040;18.400;2022-08-20T16:20:09;23.40;70.40
74511;DHT22;62991;50.040;18.400;2022-08-20T16:23:14;23.40;70.50
74511;DHT22;62991;50.040;18.400;2022-08-20T16:30:11;23.40;70.30
74511;DHT22;62991;50.040;18.400;2022-08-20T16:33:24;23.40;70.50
74511;DHT22;62991;50.040;18.400;2022-08-20T16:36:41;23.20;70.80
74511;DHT22;62991;50.040;18.400;2022-08-20T16:39:51;23.10;71.30
74511;DHT22;62991;50.040;18.400;2022-08-20T16:42:57;22.90;71.80
74511;DHT22;62991;50.040;18.400;2022-08-20T16:46:05;22.80;72.10
74511;DHT22;62991;50.040;18.400;2022-08-20T16:49:12;22.80;72.20
74511;DHT22;62991;50.040;18.400;2022-08-20T16:52:14;23.00;71.70
74511;DHT22;62991;50.040;18.400;2022-08-20T16:55:15;23.10;71.50
74511;DHT22;62991;50.040;18.400;2022-08-20T16:58:16;23.30;71.10
74511;DHT22;62991;50.040;18.400;2022-08-20T17:01:24;23.30;70.70
74511;DHT22;62991;50.040;18.400;2022-08-20T17:04:25;23.40;70.40
74511;DHT22;62991;50.040;18.400;2022-08-20T17:07:39;23.40;70.20
74511;DHT22;62991;50.040;18.400;2022-08-20T17:10:58;23.40;70.10
74511;DHT22;62991;50.040;18.400;2022-08-20T17:14:12;23.40;70.30
74511;DHT22;62991;50.040;18.400;2022-08-20T17:17:27;23.40;70.50
74511;DHT22;62991;50.040;18.400;2022-08-20T17:20:28;23.40;70.50
74511;DHT22;62991;50.040;18.400;2022-08-20T17:23:30;23.30;70.60
74511;DHT22;62991;50.040;18.400;2022-08-20T17:26:34;23.30;70.70
74511;DHT22;62991;50.040;18.400;2022-08-20T17:29:56;23.30;70.40
74511;DHT22;62991;50.040;18.400;2022-08-20T17:33:17;23.30;70.30
74511;DHT22;62991;50.040;18.400;2022-08-20T17:36:20;23.30;70.30
74511;DHT22;62991;50.040;18.400;2022-08-20T17:39:24;23.30;70.10
74511;DHT22;62991;50.040;18.400;2022-08-20T17:43:06;23.20;69.90
74511;DHT22;62991;50.040;18.400;2022-08-20T17:46:10;23.10;70.00
74511;DHT22;62991;50.040;18.400;2022-08-20T17:49:16;23.00;70.20
74511;DHT22;62991;50.040;18.400;2022-08-20T17:52:33;23.00;70.10
74511;DHT22;62991;50.040;18.400;2022-08-20T17:55:39;22.90;70.30
74511;DHT22;62991;50.040;18.400;2022-08-20T18:01:45;22.80;70.30
74511;DHT22;62991;50.040;18.400;2022-08-20T18:04:47;22.80;70.40
74511;DHT22;62991;50.040;18.400;2022-08-20T18:08:55;22.70;70.50
74511;DHT22;62991;50.040;18.400;2022-08-20T18:11:43;22.70;70.30
74511;DHT22;62991;50.040;18.400;2022-08-20T18:28:44;22.70;69.40
74511;DHT22;62991;50.040;18.400;2022-08-20T18:31:49;22.70;69.10
74511;DHT22;62991;50.040;18.400;2022-08-20T18:34:51;22.70;68.80
74511;DHT22;62991;50.040;18.400;2022-08-20T18:37:52;22.80;68.60
74511;DHT22;62991;50.040;18.400;2022-08-20T18:41:29;22.90;68.60
74511;DHT22;62991;50.040;18.400;2022-08-20T18:44:44;23.00;68.70
74511;DHT22;62991;50.040;18.400;2022-08-20T18:47:45;23.00;68.80
74511;DHT22;62991;50.040;18.400;2022-08-20T18:50:47;23.00;68.90
74511;DHT22;62991;50.040;18.400;2022-08-20T18:53:50;23.00;68.80
74511;DHT22;62991;50.040;18.400;2022-08-20T18:57:16;23.00;69.00
74511;DHT22;62991;50.040;18.400;2022-08-20T19:00:19;23.00;69.00
74511;DHT22;62991;50.040;18.400;2022-08-20T19:16:35;22.80;69.60
74511;DHT22;62991;50.040;18.400;2022-08-20T19:19:37;22.80;69.30
74511;DHT22;62991;50.040;18.400;2022-08-20T19:22:39;22.70;69.30
74511;DHT22;62991;50.040;18.400;2022-08-20T19:29:07;22.50;69.60
74511;DHT22;62991;50.040;18.400;2022-08-20T19:32:17;22.50;69.80
74511;DHT22;62991;50.040;18.400;2022-08-20T19:35:18;22.40;70.10
74511;DHT22;62991;50.040;18.400;2022-08-20T19:38:20;22.30;70.40
74511;DHT22;62991;50.040;18.400;2022-08-20T19:41:47;22.40;70.40
74511;DHT22;62991;50.040;18.400;2022-08-20T19:44:59;22.50;70.50
74511;DHT22;62991;50.040;18.400;2022-08-20T19:51:19;22.60;70.70
74511;DHT22;62991;50.040;18.400;2022-08-20T19:54:25;22.60;70.80
74511;DHT22;62991;50.040;18.400;2022-08-20T19:57:26;22.60;71.10
74511;DHT22;62991;50.040;18.400;2022-08-20T20:00:36;22.60;71.00
74511;DHT22;62991;50.040;18.400;2022-08-20T20:03:37;22.60;70.90
74511;DHT22;62991;50.040;18.400;2022-08-20T20:06:44;22.60;70.90
74511;DHT22;62991;50.040;18.400;2022-08-20T20:09:46;22.50;70.90
74511;DHT22;62991;50.040;18.400;2022-08-20T20:12:48;22.40;71.10